Řízení letového provozu České republiky
Letiste: LKLN Aktualizace: 26.08.2016 08:08:03  UTC
 METAR LKLN 26.08. 08:00 ...
METAR LKLN 260800Z AUTO 11001KT CAVOK 20/14 Q1021=